createdAt,value
2023-03-24T00:00:24.226Z,1.13
2023-03-24T00:02:51.976Z,2.90
2023-03-24T00:05:21.807Z,1.67
2023-03-24T00:07:54.621Z,1.77
2023-03-24T00:10:22.968Z,1.20
2023-03-24T00:12:50.921Z,1.50
2023-03-24T00:15:21.758Z,1.13
2023-03-24T00:17:53.096Z,1.17
2023-03-24T00:20:22.330Z,1.63
2023-03-24T00:22:57.378Z,1.30
2023-03-24T00:25:34.050Z,2.30
2023-03-24T00:28:04.489Z,2.23
2023-03-24T00:30:31.655Z,1.87
2023-03-24T00:32:59.199Z,1.87
2023-03-24T00:35:26.054Z,2.10
2023-03-24T00:37:52.746Z,1.20
2023-03-24T00:40:21.310Z,1.77
2023-03-24T00:42:49.961Z,1.33
2023-03-24T00:45:20.068Z,1.73
2023-03-24T00:47:50.331Z,1.30
2023-03-24T00:50:26.665Z,1.20
2023-03-24T00:52:54.703Z,2.20
2023-03-24T00:55:21.432Z,2.03
2023-03-24T00:57:51.839Z,1.30
2023-03-24T01:00:24.776Z,1.80
2023-03-24T01:02:54.357Z,1.87
2023-03-24T01:05:23.917Z,1.40
2023-03-24T01:07:52.517Z,1.80
2023-03-24T01:10:21.860Z,1.50
2023-03-24T01:12:49.162Z,3.30
2023-03-24T01:15:20.260Z,1.63
2023-03-24T01:17:48.811Z,1.50
2023-03-24T01:20:16.909Z,2.23
2023-03-24T01:22:45.105Z,1.50
2023-03-24T01:25:19.124Z,1.70
2023-03-24T01:27:47.618Z,1.90
2023-03-24T01:30:17.059Z,1.73
2023-03-24T01:32:44.265Z,1.93
2023-03-24T01:35:11.740Z,1.90
2023-03-24T01:37:39.645Z,1.67
2023-03-24T01:40:10.028Z,1.30
2023-03-24T01:42:38.830Z,2.23
2023-03-24T01:45:39.653Z,1.30
2023-03-24T01:48:11.770Z,1.47
2023-03-24T01:50:39.685Z,1.63
2023-03-24T01:53:07.826Z,1.97
2023-03-24T01:55:34.777Z,1.53
2023-03-24T01:58:03.567Z,1.53
2023-03-24T02:00:30.890Z,1.40
2023-03-24T02:03:09.083Z,1.10
2023-03-24T02:05:38.687Z,1.40
2023-03-24T02:08:08.292Z,1.10
2023-03-24T02:10:37.642Z,1.30
2023-03-24T02:13:06.463Z,1.37
2023-03-24T02:15:39.223Z,1.80
2023-03-24T02:18:28.747Z,1.35
2023-03-24T02:20:58.571Z,1.50
2023-03-24T02:23:37.322Z,1.63
2023-03-24T02:26:34.962Z,1.70
2023-03-24T02:29:32.417Z,1.47
2023-03-24T02:32:30.473Z,1.23
2023-03-24T02:35:38.579Z,1.40
2023-03-24T02:38:20.464Z,1.20
2023-03-24T02:41:10.985Z,2.23
2023-03-24T02:44:02.757Z,1.10
2023-03-24T02:46:51.584Z,1.97
2023-03-24T02:49:18.334Z,1.50
2023-03-24T02:52:06.760Z,1.73
2023-03-24T02:54:50.217Z,1.80
2023-03-24T02:57:25.860Z,2.07
2023-03-24T03:00:10.251Z,1.27
2023-03-24T03:02:44.462Z,1.17
2023-03-24T03:05:22.701Z,1.97
2023-03-24T03:07:51.133Z,1.93
2023-03-24T03:10:25.798Z,1.87
2023-03-24T03:12:56.302Z,1.13
2023-03-24T03:15:28.488Z,0.93
2023-03-24T03:18:23.169Z,1.13
2023-03-24T03:20:58.146Z,1.57
2023-03-24T03:23:39.778Z,2.00
2023-03-24T03:26:12.780Z,1.83
2023-03-24T03:31:15.635Z,0.93
2023-03-24T03:33:50.746Z,2.67
2023-03-24T03:36:28.309Z,1.80
2023-03-24T03:39:22.646Z,2.20
2023-03-24T03:41:49.535Z,1.20
2023-03-24T03:44:16.323Z,2.13
2023-03-24T03:46:43.381Z,0.70
2023-03-24T03:49:10.778Z,1.60
2023-03-24T03:51:37.879Z,1.33
2023-03-24T03:54:09.001Z,2.00
2023-03-24T03:56:37.989Z,1.63
2023-03-24T03:59:06.391Z,2.33
2023-03-24T04:01:37.276Z,1.27
2023-03-24T04:04:41.476Z,1.37
2023-03-24T04:07:24.670Z,2.07
2023-03-24T04:13:17.702Z,1.70
2023-03-24T04:16:28.540Z,2.53
2023-03-24T04:19:11.096Z,1.40
2023-03-24T04:21:38.790Z,2.58
2023-03-24T04:24:13.940Z,2.03
2023-03-24T04:26:55.968Z,1.60
2023-03-24T04:29:33.452Z,1.40
2023-03-24T04:32:08.106Z,1.50
2023-03-24T04:34:41.334Z,1.67
2023-03-24T04:37:14.773Z,1.27
2023-03-24T04:39:45.594Z,1.57
2023-03-24T04:42:18.062Z,1.63
2023-03-24T04:44:45.642Z,2.33
2023-03-24T04:47:12.965Z,1.50
2023-03-24T04:49:40.414Z,1.60
2023-03-24T04:52:08.120Z,1.50
2023-03-24T04:54:34.914Z,1.77
2023-03-24T04:57:02.799Z,1.60
2023-03-24T04:59:31.422Z,2.27
2023-03-24T05:01:58.149Z,1.67
2023-03-24T05:04:27.297Z,2.00
2023-03-24T05:06:54.301Z,2.27
2023-03-24T05:09:24.913Z,1.97
2023-03-24T05:11:52.385Z,1.70
2023-03-24T05:14:20.033Z,1.53
2023-03-24T05:16:46.858Z,2.73
2023-03-24T05:19:13.760Z,3.03
2023-03-24T05:21:40.545Z,1.50
2023-03-24T05:24:08.011Z,1.67
2023-03-24T05:26:35.705Z,2.90
2023-03-24T05:29:02.372Z,1.63
2023-03-24T05:31:29.133Z,2.83
2023-03-24T05:33:56.877Z,2.53
2023-03-24T05:36:23.776Z,2.27
2023-03-24T05:38:50.529Z,1.77
2023-03-24T05:41:17.591Z,3.50
2023-03-24T05:43:44.223Z,1.50
2023-03-24T05:46:11.136Z,1.87
2023-03-24T05:48:38.063Z,1.60
2023-03-24T05:51:04.867Z,2.10
2023-03-24T05:53:31.576Z,2.27
2023-03-24T05:55:59.815Z,1.57
2023-03-24T05:58:26.446Z,2.47
2023-03-24T06:00:54.794Z,2.33
2023-03-24T06:03:21.685Z,2.37
2023-03-24T06:05:49.438Z,2.60
2023-03-24T06:08:17.222Z,2.00
2023-03-24T06:10:44.359Z,1.60
2023-03-24T06:13:11.400Z,2.17
2023-03-24T06:15:39.778Z,1.43
2023-03-24T06:18:08.109Z,1.80
2023-03-24T06:20:36.201Z,1.40
2023-03-24T06:23:03.172Z,2.37
2023-03-24T06:25:30.216Z,1.80
2023-03-24T06:28:04.141Z,2.77
2023-03-24T06:30:31.431Z,2.43
2023-03-24T06:32:58.354Z,2.80
2023-03-24T06:35:25.111Z,2.60
2023-03-24T06:37:52.218Z,2.00
2023-03-24T06:40:19.806Z,2.23
2023-03-24T06:42:46.499Z,1.80
2023-03-24T06:45:13.536Z,2.00
2023-03-24T06:47:40.342Z,2.57
2023-03-24T06:50:07.380Z,1.60
2023-03-24T06:52:35.856Z,2.30
2023-03-24T06:55:03.130Z,2.90
2023-03-24T06:57:30.154Z,1.93
2023-03-24T06:59:57.492Z,1.97
2023-03-24T07:02:24.289Z,2.90
2023-03-24T07:04:54.103Z,1.87
2023-03-24T07:07:53.341Z,2.43
2023-03-24T07:10:09.644Z,2.63
2023-03-24T07:12:36.861Z,3.17
2023-03-24T07:15:04.738Z,1.73
2023-03-24T07:17:31.557Z,1.97
2023-03-24T07:19:58.776Z,3.10
2023-03-24T07:22:26.129Z,2.43
2023-03-24T07:24:54.053Z,2.03
2023-03-24T07:27:21.258Z,2.70
2023-03-24T07:29:47.893Z,1.93
2023-03-24T07:32:14.714Z,2.00
2023-03-24T07:34:44.023Z,3.03
2023-03-24T07:37:11.394Z,2.50
2023-03-24T07:39:38.093Z,3.57
2023-03-24T07:42:05.306Z,2.57
2023-03-24T07:44:31.962Z,2.03
2023-03-24T07:46:59.018Z,2.10
2023-03-24T07:49:26.351Z,2.43
2023-03-24T07:51:53.013Z,2.67
2023-03-24T07:54:19.746Z,2.37
2023-03-24T07:56:46.785Z,1.90
2023-03-24T07:59:13.694Z,2.50
2023-03-24T08:01:40.522Z,2.17
2023-03-24T08:04:07.644Z,2.03
2023-03-24T08:06:34.935Z,2.00
2023-03-24T08:09:01.703Z,2.13
2023-03-24T08:11:28.808Z,3.23
2023-03-24T08:13:56.003Z,2.13
2023-03-24T08:16:22.756Z,1.43
2023-03-24T08:18:50.994Z,1.87
2023-03-24T08:21:17.708Z,2.17
2023-03-24T08:23:44.470Z,1.67
2023-03-24T08:26:12.244Z,1.70
2023-03-24T08:28:43.188Z,2.28
2023-03-24T08:31:10.547Z,2.43
2023-03-24T08:33:37.701Z,2.13
2023-03-24T08:36:04.752Z,1.93
2023-03-24T08:38:31.573Z,1.60
2023-03-24T08:41:02.802Z,2.10
2023-03-24T08:43:31.532Z,1.70
2023-03-24T08:45:59.802Z,2.80
2023-03-24T08:48:28.123Z,2.50
2023-03-24T08:50:55.849Z,2.57
2023-03-24T08:53:22.743Z,1.90
2023-03-24T08:55:49.629Z,2.43
2023-03-24T08:58:18.913Z,2.20
2023-03-24T09:00:46.978Z,2.40
2023-03-24T09:03:18.542Z,2.13
2023-03-24T09:05:47.826Z,2.70
2023-03-24T09:08:17.454Z,2.07
2023-03-24T09:10:47.249Z,2.87
2023-03-24T09:13:14.650Z,2.57
2023-03-24T09:15:49.931Z,1.77
2023-03-24T09:18:18.965Z,2.90
2023-03-24T09:20:46.894Z,1.97
2023-03-24T09:23:13.944Z,1.80
2023-03-24T09:25:41.105Z,2.00
2023-03-24T09:28:08.863Z,3.13
2023-03-24T09:30:36.353Z,2.10
2023-03-24T09:33:03.737Z,1.90
2023-03-24T09:35:30.506Z,4.30
2023-03-24T09:37:57.361Z,2.07
2023-03-24T09:40:35.871Z,2.20
2023-03-24T09:43:07.006Z,3.17
2023-03-24T09:45:38.013Z,1.97
2023-03-24T09:48:14.192Z,2.17
2023-03-24T09:50:52.168Z,2.47
2023-03-24T09:53:32.662Z,2.40
2023-03-24T09:56:07.328Z,2.67
2023-03-24T09:58:34.352Z,1.87
2023-03-24T10:01:01.281Z,1.83
2023-03-24T10:03:28.281Z,1.27
2023-03-24T10:06:05.405Z,1.47
2023-03-24T10:08:35.394Z,1.30
2023-03-24T10:11:08.796Z,1.23
2023-03-24T10:14:12.762Z,1.40
2023-03-24T10:16:46.540Z,1.23
2023-03-24T10:19:38.492Z,1.40
2023-03-24T10:22:14.679Z,1.10
2023-03-24T10:25:16.509Z,1.30
2023-03-24T10:27:49.546Z,1.00
2023-03-24T10:32:45.491Z,0.97
2023-03-24T10:35:24.877Z,1.93
2023-03-24T10:37:52.517Z,2.10
2023-03-24T10:40:22.843Z,2.10
2023-03-24T10:43:06.806Z,1.00
2023-03-24T10:45:38.466Z,1.33
2023-03-24T10:48:06.170Z,1.40
2023-03-24T10:50:36.041Z,0.90
2023-03-24T10:53:10.249Z,1.67
2023-03-24T10:55:44.149Z,2.30
2023-03-24T10:58:28.630Z,1.70
2023-03-24T11:00:57.669Z,1.50
2023-03-24T11:03:31.818Z,1.93
2023-03-24T11:06:03.359Z,1.10
2023-03-24T11:08:33.314Z,1.70
2023-03-24T11:11:00.141Z,1.73
2023-03-24T11:13:34.327Z,1.30
2023-03-24T11:16:14.946Z,1.57
2023-03-24T11:19:02.871Z,1.53
2023-03-24T11:21:32.075Z,1.30
2023-03-24T11:24:04.624Z,1.10
2023-03-24T11:26:34.759Z,1.20
2023-03-24T11:29:24.350Z,1.43
2023-03-24T11:31:55.042Z,1.70
2023-03-24T11:34:34.430Z,1.40
2023-03-24T11:37:09.439Z,1.30
2023-03-24T11:39:36.390Z,1.47
2023-03-24T11:42:12.355Z,1.00
2023-03-24T11:44:39.186Z,1.27
2023-03-24T11:47:32.476Z,0.87
2023-03-24T11:50:14.361Z,0.97
2023-03-24T11:52:48.171Z,1.20
2023-03-24T11:55:32.790Z,1.17
2023-03-24T11:58:04.663Z,1.30
2023-03-24T12:00:41.427Z,1.77
2023-03-24T12:03:17.477Z,1.27
2023-03-24T12:05:57.555Z,1.00
2023-03-24T12:08:42.900Z,1.13
2023-03-24T12:11:12.955Z,2.57
2023-03-24T12:13:43.079Z,1.57
2023-03-24T12:16:27.974Z,1.60
2023-03-24T12:19:19.617Z,1.07
2023-03-24T12:21:46.749Z,1.20
2023-03-24T12:24:31.996Z,0.80
2023-03-24T12:27:00.933Z,1.13
2023-03-24T12:29:27.862Z,1.30
2023-03-24T12:32:10.233Z,1.20
2023-03-24T12:34:43.210Z,1.48
2023-03-24T12:37:47.631Z,1.90
2023-03-24T12:40:32.739Z,1.40
2023-03-24T12:43:27.568Z,1.50
2023-03-24T12:46:01.624Z,1.30
2023-03-24T12:48:40.856Z,1.70
2023-03-24T12:51:24.406Z,1.53
2023-03-24T12:54:08.536Z,1.33
2023-03-24T12:56:41.911Z,1.57
2023-03-24T12:59:19.784Z,1.50
2023-03-24T13:01:52.707Z,1.60
2023-03-24T13:04:25.549Z,1.40
2023-03-24T13:07:00.126Z,1.90
2023-03-24T13:10:00.729Z,1.50
2023-03-24T13:12:51.005Z,1.50
2023-03-24T13:15:32.161Z,2.07
2023-03-24T13:18:09.256Z,1.57
2023-03-24T13:20:53.510Z,1.77
2023-03-24T13:23:29.049Z,2.42
2023-03-24T13:26:16.722Z,1.75
2023-03-24T13:29:03.860Z,1.90
2023-03-24T13:31:54.839Z,1.20
2023-03-24T13:34:28.112Z,1.50
2023-03-24T13:37:37.864Z,1.10
2023-03-24T13:40:18.523Z,1.87
2023-03-24T13:42:56.234Z,1.00
2023-03-24T13:45:39.302Z,1.00
2023-03-24T13:48:12.154Z,0.90
2023-03-24T13:50:47.354Z,0.87
2023-03-24T13:53:16.603Z,1.20
2023-03-24T13:55:52.474Z,1.13
2023-03-24T13:58:23.676Z,1.00
2023-03-24T14:01:14.950Z,0.67
2023-03-24T14:03:46.100Z,1.00
2023-03-24T14:06:17.880Z,0.80
2023-03-24T14:08:54.246Z,0.80
2023-03-24T14:11:38.300Z,0.80
2023-03-24T14:14:14.178Z,1.00
2023-03-24T14:17:12.344Z,0.73
2023-03-24T14:19:59.288Z,1.00
2023-03-24T14:22:32.283Z,1.90
2023-03-24T14:25:17.615Z,2.63
2023-03-24T14:27:46.815Z,2.60
2023-03-24T14:30:13.993Z,2.93
2023-03-24T14:32:46.254Z,2.80
2023-03-24T14:35:44.509Z,2.30
2023-03-24T14:38:14.562Z,1.90
2023-03-24T14:40:44.888Z,1.10
2023-03-24T14:43:50.021Z,1.00
2023-03-24T14:46:19.819Z,1.80
2023-03-24T14:48:49.739Z,1.50
2023-03-24T14:51:43.514Z,2.60
2023-03-24T14:54:23.692Z,2.00
2023-03-24T14:56:54.043Z,2.60
2023-03-24T14:59:43.648Z,2.53
2023-03-24T15:02:28.904Z,2.90
2023-03-24T15:05:22.442Z,1.40
2023-03-24T15:08:01.315Z,3.40
2023-03-24T15:10:36.550Z,1.40
2023-03-24T15:13:04.028Z,6.23
2023-03-24T15:15:31.153Z,8.10
2023-03-24T15:17:57.913Z,1.30
2023-03-24T15:20:35.691Z,1.53
2023-03-24T15:23:09.258Z,2.97
2023-03-24T15:25:41.675Z,1.53
2023-03-24T15:28:20.566Z,1.17
2023-03-24T15:30:51.416Z,10.07
2023-03-24T15:33:19.126Z,8.40
2023-03-24T15:35:46.689Z,11.53
2023-03-24T15:38:27.510Z,19.70
2023-03-24T15:41:00.304Z,29.80
2023-03-24T15:43:27.161Z,3.87
2023-03-24T15:46:08.623Z,3.00
2023-03-24T15:48:39.058Z,10.70
2023-03-24T15:51:09.399Z,4.90
2023-03-24T15:53:49.470Z,1.73
2023-03-24T15:56:17.793Z,3.67
2023-03-24T15:59:16.259Z,2.17
2023-03-24T16:01:45.155Z,3.53
2023-03-24T16:04:16.668Z,2.43
2023-03-24T16:06:53.726Z,0.70
2023-03-24T16:09:27.396Z,1.80
2023-03-24T16:11:54.533Z,1.20
2023-03-24T16:14:30.002Z,0.80
2023-03-24T16:17:05.309Z,0.70
2023-03-24T16:19:32.986Z,0.90
2023-03-24T16:22:00.046Z,0.80
2023-03-24T16:24:26.851Z,1.43
2023-03-24T16:26:53.620Z,2.50
2023-03-24T16:29:24.668Z,1.77
2023-03-24T16:31:53.750Z,1.87
2023-03-24T16:34:21.960Z,0.70
2023-03-24T16:36:50.822Z,4.20
2023-03-24T16:39:23.651Z,3.63
2023-03-24T16:41:50.527Z,1.00
2023-03-24T16:44:20.317Z,3.73
2023-03-24T16:46:50.769Z,3.57
2023-03-24T16:49:19.128Z,1.47
2023-03-24T16:51:46.996Z,0.60
2023-03-24T16:54:13.864Z,0.83
2023-03-24T16:56:40.590Z,0.63
2023-03-24T16:59:08.041Z,1.23
2023-03-24T17:01:40.341Z,1.60
2023-03-24T17:04:12.106Z,1.17
2023-03-24T17:06:42.481Z,0.70
2023-03-24T17:09:10.114Z,0.50
2023-03-24T17:11:42.780Z,0.60
2023-03-24T17:14:12.602Z,0.70
2023-03-24T17:16:43.910Z,0.50
2023-03-24T17:19:21.713Z,0.70
2023-03-24T17:21:58.173Z,0.40
2023-03-24T17:24:25.731Z,0.57
2023-03-24T17:26:52.766Z,0.67
2023-03-24T17:29:19.643Z,0.90
2023-03-24T17:31:46.541Z,0.60
2023-03-24T17:36:44.599Z,0.70
2023-03-24T17:39:16.451Z,0.70
2023-03-24T17:41:43.330Z,0.97
2023-03-24T17:44:10.558Z,1.07
2023-03-24T17:46:37.717Z,0.60
2023-03-24T17:49:04.674Z,0.57
2023-03-24T17:51:31.341Z,1.03
2023-03-24T17:53:58.483Z,0.60
2023-03-24T17:56:25.144Z,0.63
2023-03-24T17:58:55.101Z,0.60
2023-03-24T18:01:22.250Z,0.50
2023-03-24T18:03:49.868Z,0.70
2023-03-24T18:06:17.222Z,0.50
2023-03-24T18:08:44.558Z,0.67
2023-03-24T18:11:14.694Z,0.93
2023-03-24T18:13:42.927Z,0.80
2023-03-24T18:16:20.551Z,0.63
2023-03-24T18:18:49.733Z,0.83
2023-03-24T18:21:16.666Z,0.87
2023-03-24T18:23:44.057Z,0.80
2023-03-24T18:26:11.309Z,1.23
2023-03-24T18:28:39.228Z,0.70
2023-03-24T18:36:06.660Z,1.03
2023-03-24T18:39:36.477Z,0.80
2023-03-24T18:46:44.982Z,0.97
2023-03-24T18:49:35.492Z,0.80
2023-03-24T18:52:08.448Z,0.90
2023-03-24T18:54:36.518Z,0.90
2023-03-24T18:57:06.956Z,0.80
2023-03-24T18:59:33.912Z,0.80
2023-03-24T19:02:00.761Z,0.70
2023-03-24T19:04:27.863Z,0.80
2023-03-24T19:06:54.739Z,0.70
2023-03-24T19:09:22.998Z,0.93
2023-03-24T19:11:50.082Z,0.73
2023-03-24T19:19:10.584Z,0.73
2023-03-24T19:22:40.079Z,0.70
2023-03-24T19:26:06.728Z,0.93
2023-03-24T19:29:33.278Z,0.93
2023-03-24T19:33:00.238Z,1.20
2023-03-24T19:35:27.319Z,1.57
2023-03-24T19:37:54.024Z,1.03
2023-03-24T19:40:21.065Z,1.40
2023-03-24T19:42:48.317Z,0.80
2023-03-24T19:45:17.074Z,2.10
2023-03-24T19:47:46.231Z,1.00
2023-03-24T19:50:15.834Z,1.03
2023-03-24T19:52:43.291Z,1.33
2023-03-24T19:55:13.430Z,1.10
2023-03-24T19:57:40.713Z,2.00
2023-03-24T20:00:10.281Z,1.50
2023-03-24T20:02:38.396Z,1.40
2023-03-24T20:05:07.028Z,1.20
2023-03-24T20:07:34.272Z,1.60
2023-03-24T20:10:01.138Z,1.30
2023-03-24T20:12:28.295Z,1.60
2023-03-24T20:14:57.036Z,1.97
2023-03-24T20:17:30.184Z,1.57
2023-03-24T20:19:56.982Z,2.13
2023-03-24T20:22:23.747Z,1.90
2023-03-24T20:24:51.032Z,2.33
2023-03-24T20:27:17.846Z,2.33
2023-03-24T20:29:46.023Z,1.70
2023-03-24T20:32:14.040Z,2.00
2023-03-24T20:34:40.967Z,2.37
2023-03-24T20:37:08.257Z,1.53
2023-03-24T20:39:35.399Z,1.53
2023-03-24T20:42:02.385Z,2.43
2023-03-24T20:44:29.219Z,1.57
2023-03-24T20:46:57.410Z,1.27
2023-03-24T20:49:25.986Z,1.30
2023-03-24T20:51:53.437Z,1.20
2023-03-24T20:54:21.449Z,1.40
2023-03-24T20:56:52.682Z,1.90
2023-03-24T20:59:20.131Z,1.43
2023-03-24T21:01:50.085Z,1.50
2023-03-24T21:04:18.952Z,1.53
2023-03-24T21:06:46.283Z,1.30
2023-03-24T21:09:13.632Z,1.37
2023-03-24T21:11:40.527Z,1.00
2023-03-24T21:14:07.702Z,1.20
2023-03-24T21:16:37.802Z,1.40
2023-03-24T21:19:05.225Z,0.90
2023-03-24T21:21:32.440Z,1.00
2023-03-24T21:24:00.786Z,1.73
2023-03-24T21:26:27.903Z,1.47
2023-03-24T21:28:54.872Z,1.07
2023-03-24T21:31:25.313Z,1.13
2023-03-24T21:33:53.214Z,2.03
2023-03-24T21:36:21.038Z,1.40
2023-03-24T21:38:51.916Z,0.83
2023-03-24T21:41:19.952Z,0.80
2023-03-24T21:43:47.095Z,1.13
2023-03-24T21:46:21.137Z,1.73
2023-03-24T21:48:53.165Z,0.80
2023-03-24T21:51:24.167Z,1.13
2023-03-24T21:54:04.272Z,1.00
2023-03-24T21:56:33.011Z,0.80
2023-03-24T21:59:00.491Z,0.97
2023-03-24T22:01:28.332Z,0.83
2023-03-24T22:03:56.032Z,0.80
2023-03-24T22:06:22.955Z,0.73
2023-03-24T22:08:50.349Z,1.43
2023-03-24T22:11:19.102Z,0.90
2023-03-24T22:13:46.742Z,1.00
2023-03-24T22:16:14.536Z,0.73
2023-03-24T22:18:41.931Z,0.57
2023-03-24T22:21:10.568Z,0.73
2023-03-24T22:23:40.479Z,0.80
2023-03-24T22:26:10.928Z,1.00
2023-03-24T22:28:38.307Z,1.07
2023-03-24T22:31:16.449Z,0.70
2023-03-24T22:33:44.234Z,0.90
2023-03-24T22:36:11.555Z,1.13
2023-03-24T22:38:38.776Z,0.83
2023-03-24T22:41:08.370Z,0.90
2023-03-24T22:44:35.006Z,0.83
2023-03-24T22:47:02.829Z,1.00
2023-03-24T22:49:31.075Z,0.80
2023-03-24T22:51:57.999Z,1.07
2023-03-24T22:54:25.041Z,0.60
2023-03-24T22:56:52.298Z,1.10
2023-03-24T22:59:19.488Z,0.90
2023-03-24T23:01:51.468Z,1.23
2023-03-24T23:04:25.928Z,0.80
2023-03-24T23:06:53.118Z,0.87
2023-03-24T23:09:19.770Z,1.40
2023-03-24T23:11:50.419Z,0.80
2023-03-24T23:14:18.587Z,1.00
2023-03-24T23:16:45.393Z,0.80
2023-03-24T23:19:12.476Z,0.97
2023-03-24T23:21:39.322Z,1.03
2023-03-24T23:24:06.508Z,0.60
2023-03-24T23:26:33.568Z,0.67
2023-03-24T23:29:00.465Z,0.80
2023-03-24T23:31:28.054Z,1.13
2023-03-24T23:33:58.036Z,1.00
2023-03-24T23:36:28.566Z,0.93
2023-03-24T23:38:55.764Z,1.10
2023-03-24T23:41:23.086Z,1.50
2023-03-24T23:43:51.083Z,1.10
2023-03-24T23:46:19.025Z,1.77
2023-03-24T23:48:46.340Z,1.70
2023-03-24T23:51:13.178Z,1.07
2023-03-24T23:53:39.991Z,1.03
2023-03-24T23:56:09.171Z,1.70
2023-03-24T23:58:39.148Z,1.50
